Time;durP1;ratioP1;P1;durP2;ratioP2;P2;SDS_P1;SDS_P2;PMS_P1;PMS_P2;Temp;Humidity;BMP_temperature;BMP_pressure;BME280_temperature;BME280_humidity;BME280_pressure;Samples;Min_cycle;Max_cycle;Signal;HPM_P1;HPM_P2
2022/01/06 00:00:48;;;;;;;12.00;2.73;;;;;;;1.20;100.00;101334.53;2098367;28;20470;-64
2022/01/06 00:01:49;;;;;;;12.63;4.10;;;;;;;1.17;100.00;101334.53;2107348;28;20108;-64
2022/01/06 00:02:49;;;;;;;12.47;3.10;;;;;;;1.15;100.00;101334.50;2107289;28;20029;-67
2022/01/06 00:03:52;;;;;;;16.80;2.90;;;;;;;1.15;100.00;101337.09;2107304;28;20020;-64
2022/01/06 00:04:52;;;;;;;12.32;2.63;;;;;;;1.14;100.00;101340.50;2107259;28;20019;-64
2022/01/06 00:05:55;;;;;;;12.10;2.17;;;;;;;1.13;100.00;101338.81;2107247;28;20442;-64
2022/01/06 00:06:55;;;;;;;24.13;5.30;;;;;;;1.13;100.00;101338.81;2107311;28;20391;-65
2022/01/06 00:07:55;;;;;;;14.67;2.87;;;;;;;1.15;100.00;101343.09;2107239;28;20055;-64
2022/01/06 00:08:57;;;;;;;10.00;2.53;;;;;;;1.18;100.00;101341.38;2107221;28;20027;-65
2022/01/06 00:09:57;;;;;;;;;;;;;;;1.15;100.00;101343.09;2107748;28;20023;-64
2022/01/06 00:10:57;;;;;;;14.98;2.45;;;;;;;1.09;100.00;101342.22;2107282;28;20291;-65
2022/01/06 00:11:57;;;;;;;12.40;3.00;;;;;;;1.07;100.00;101337.06;2107322;28;20385;-64
2022/01/06 00:13:09;;;;;;;8.47;2.40;;;;;;;1.01;100.00;101348.16;2107226;28;20028;-64
2022/01/06 00:16:43;;;;;;;12.15;2.00;;;;;;;1.02;100.00;101347.31;2107553;28;20044;-64
2022/01/06 00:18:08;;;;;;;11.82;2.20;;;;;;;1.00;100.00;101338.72;2107158;28;20129;-64
2022/01/06 00:24:02;;;;;;;7.38;2.00;;;;;;;0.90;100.00;101349.81;2107252;28;20536;-64
2022/01/06 00:25:03;;;;;;;13.10;2.30;;;;;;;0.88;100.00;101343.78;2107095;28;20032;-64
2022/01/06 00:26:05;;;;;;;12.43;2.70;;;;;;;0.86;100.00;101350.66;2107174;28;20081;-65
2022/01/06 00:27:05;;;;;;;10.07;2.20;;;;;;;0.85;100.00;101356.63;2107151;28;20032;-65
2022/01/06 00:28:05;;;;;;;11.67;3.20;;;;;;;0.83;100.00;101364.34;2107208;28;20028;-64
2022/01/06 00:29:06;;;;;;;16.83;3.13;;;;;;;0.82;100.00;101354.88;2106955;28;20409;-64
2022/01/06 00:30:07;;;;;;;16.33;3.45;;;;;;;0.89;100.00;101360.94;2107075;28;20034;-63
2022/01/06 00:31:07;;;;;;;16.27;3.20;;;;;;;0.93;100.00;101351.53;2107180;28;20086;-64
2022/01/06 00:32:09;;;;;;;16.20;3.47;;;;;;;0.92;100.00;101354.97;2107155;28;20077;-64
2022/01/06 00:33:10;;;;;;;15.32;2.90;;;;;;;0.88;100.00;101364.34;2107065;28;20081;-65
2022/01/06 00:34:11;;;;;;;18.17;4.47;;;;;;;0.83;100.00;101361.78;2107091;28;20028;-64
2022/01/06 00:35:11;;;;;;;13.45;3.92;;;;;;;0.77;100.00;101357.44;2107091;28;20028;-65
2022/01/06 00:36:11;;;;;;;18.33;3.00;;;;;;;0.76;100.00;101360.00;2107054;28;20024;-65
2022/01/06 00:37:12;;;;;;;11.40;2.50;;;;;;;0.74;100.00;101362.56;2106992;28;20520;-64
2022/01/06 00:38:13;;;;;;;15.00;2.45;;;;;;;0.74;100.00;101367.69;2097998;28;20052;-64
2022/01/06 00:39:13;;;;;;;15.63;4.63;;;;;;;0.75;100.00;101369.41;2098175;28;20430;-65
2022/01/06 00:40:14;;;;;;;11.77;2.63;;;;;;;0.74;100.00;101367.69;2098025;28;20467;-65
2022/01/06 00:41:14;;;;;;;10.57;3.90;;;;;;;0.75;100.00;101369.41;2098040;28;20020;-65
2022/01/06 00:42:16;;;;;;;17.27;3.07;;;;;;;0.72;100.00;101366.81;2098137;28;20045;-65
2022/01/06 00:43:16;;;;;;;15.52;2.50;;;;;;;0.69;100.00;101363.38;2107085;28;20473;-65
2022/01/06 00:44:17;;;;;;;17.20;3.43;;;;;;;0.68;100.00;101366.81;2107009;28;20032;-64
2022/01/06 00:45:18;;;;;;;16.08;2.67;;;;;;;0.66;100.00;101366.78;2097909;28;20025;-65
2022/01/06 00:46:18;;;;;;;16.13;2.57;;;;;;;0.64;100.00;101371.03;2098012;28;20044;-64
2022/01/06 00:47:20;;;;;;;9.67;3.10;;;;;;;0.61;100.00;101373.56;2106975;28;20032;-65
2022/01/06 00:48:21;;;;;;;12.40;3.20;;;;;;;0.59;100.00;101372.72;2106927;28;20039;-65
2022/01/06 00:49:21;;;;;;;13.97;5.17;;;;;;;0.59;100.00;101373.59;2106851;28;20381;-64
2022/01/06 00:50:22;;;;;;;8.70;2.23;;;;;;;0.58;100.00;101371.00;2106983;28;20024;-65
2022/01/06 00:51:23;;;;;;;;;;;;;;;0.57;100.00;101382.13;2107395;28;20053;-65
2022/01/06 00:52:23;;;;;;;7.32;2.08;;;;;;;0.60;100.00;101384.72;2106858;28;19908;-64
2022/01/06 00:53:23;;;;;;;14.60;3.10;;;;;;;0.60;100.00;101377.00;2097913;28;20031;-65
2022/01/06 00:54:24;;;;;;;20.90;2.83;;;;;;;0.59;100.00;101373.59;2097969;28;20134;-64
2022/01/06 00:55:24;;;;;;;13.27;2.73;;;;;;;0.60;100.00;101371.88;2106885;28;20024;-63
2022/01/06 00:56:24;;;;;;;17.80;2.60;;;;;;;0.64;100.00;101378.75;2106878;28;20054;-64
2022/01/06 00:57:25;;;;;;;15.03;3.30;;;;;;;0.67;100.00;101371.06;2106900;28;20032;-64
2022/01/06 00:58:25;;;;;;;11.47;2.60;;;;;;;0.69;100.00;101378.78;2106963;28;20035;-64
2022/01/06 00:59:25;;;;;;;15.03;3.03;;;;;;;0.63;100.00;101379.59;2106894;28;20078;-65
2022/01/06 01:00:29;;;;;;;16.07;2.97;;;;;;;0.69;100.00;101373.66;2097759;28;20167;-64
2022/01/06 01:01:30;;;;;;;14.57;2.70;;;;;;;0.66;100.00;101378.75;2098335;28;20131;-65
2022/01/06 01:02:31;;;;;;;13.18;2.53;;;;;;;0.63;100.00;101365.06;2106947;28;20020;-64
2022/01/06 01:03:31;;;;;;;18.27;4.73;;;;;;;0.64;100.00;101373.59;2106893;28;20056;-64
2022/01/06 01:04:31;;;;;;;13.57;3.57;;;;;;;0.67;100.00;101376.22;2097841;28;20510;-65
2022/01/06 01:05:32;;;;;;;18.13;3.23;;;;;;;0.62;100.00;101371.03;2097900;28;20531;-64
2022/01/06 01:06:33;;;;;;;9.05;2.25;;;;;;;0.58;100.00;101381.28;2097768;28;20138;-64
2022/01/06 01:07:33;;;;;;;12.43;3.28;;;;;;;0.57;100.00;101384.69;2097922;28;20104;-64
2022/01/06 01:08:34;;;;;;;15.53;3.07;;;;;;;0.57;100.00;101382.97;2106878;28;20039;-65
2022/01/06 01:09:34;;;;;;;11.70;2.20;;;;;;;0.57;100.00;101379.53;2106773;28;20073;-65
2022/01/06 01:10:35;;;;;;;12.00;2.03;;;;;;;0.56;100.00;101382.97;2105993;28;20410;-65
2022/01/06 01:11:37;;;;;;;10.65;2.53;;;;;;;0.51;100.00;101386.38;2097687;28;20274;-64
2022/01/06 01:12:38;;;;;;;15.02;3.35;;;;;;;0.46;100.00;101389.75;2097936;28;20557;-65
2022/01/06 01:13:54;;;;;;;10.57;2.93;;;;;;;0.43;100.00;101390.56;2106844;28;20035;-64
2022/01/06 01:15:04;;;;;;;11.60;2.42;;;;;;;0.46;100.00;101384.59;2106701;28;20541;-64
2022/01/06 01:16:20;;;;;;;11.68;2.17;;;;;;;0.42;100.00;101391.44;2106827;28;20028;-64
2022/01/06 01:17:24;;;;;;;10.48;2.83;;;;;;;0.36;100.00;101383.66;2106748;28;20497;-63
2022/01/06 01:18:24;;;;;;;14.80;2.47;;;;;;;0.36;100.00;101388.78;2106816;28;20028;-63
2022/01/06 01:19:26;;;;;;;8.50;2.40;;;;;;;0.37;100.00;101380.25;2106052;28;20043;-63
2022/01/06 01:20:26;;;;;;;11.15;2.25;;;;;;;0.38;100.00;101379.41;2106171;28;20390;-64
2022/01/06 01:21:28;;;;;;;19.97;3.97;;;;;;;0.42;100.00;101378.59;2097732;28;20032;-64
2022/01/06 01:22:28;;;;;;;8.77;2.25;;;;;;;0.42;100.00;101386.28;2097738;28;20028;-64
2022/01/06 01:23:29;;;;;;;13.73;2.87;;;;;;;0.42;100.00;101385.41;2106101;28;20508;-64
2022/01/06 01:24:29;;;;;;;9.15;2.03;;;;;;;0.36;100.00;101381.09;2106672;28;20024;-64
2022/01/06 01:25:29;;;;;;;7.97;2.13;;;;;;;0.36;100.00;101386.22;2106629;28;20020;-64
2022/01/06 01:26:29;;;;;;;14.57;2.47;;;;;;;0.33;100.00;101386.19;2106679;28;20031;-63
2022/01/06 01:27:35;;;;;;;8.23;2.33;;;;;;;0.30;100.00;101393.91;2106745;28;20065;-64
2022/01/06 01:28:43;;;;;;;11.95;2.65;;;;;;;0.25;100.00;101389.53;2097515;28;20048;-63
2022/01/06 01:30:03;;;;;;;11.93;2.65;;;;;;;0.24;100.00;101387.84;2098657;28;20044;-64
2022/01/06 01:32:27;;;;;;;11.80;2.20;;;;;;;0.28;100.00;101393.00;2106737;28;20557;-64
2022/01/06 01:33:29;;;;;;;18.77;3.30;;;;;;;0.30;100.00;101392.16;2106654;28;20046;-63
2022/01/06 01:34:29;;;;;;;14.82;2.95;;;;;;;0.34;100.00;101387.94;2097592;28;20123;-63
2022/01/06 01:35:32;;;;;;;13.13;3.07;;;;;;;0.33;100.00;101391.31;2097729;28;20024;-64
2022/01/06 01:36:32;;;;;;;12.27;2.45;;;;;;;0.30;100.00;101393.91;2106647;28;20023;-63
2022/01/06 01:37:33;;;;;;;12.27;2.53;;;;;;;0.24;100.00;101395.53;2106749;28;20107;-64
2022/01/06 01:38:33;;;;;;;16.10;2.38;;;;;;;0.23;100.00;101391.25;2097569;28;20115;-64
2022/01/06 01:39:33;;;;;;;12.60;2.42;;;;;;;0.21;100.00;101392.94;2097680;28;20019;-63
2022/01/06 01:40:34;;;;;;;12.43;2.60;;;;;;;0.21;100.00;101394.66;2097725;28;20028;-65
2022/01/06 01:41:34;;;;;;;16.07;2.53;;;;;;;0.27;100.00;101396.44;2106683;28;20465;-64
2022/01/06 01:42:34;;;;;;;14.63;3.07;;;;;;;0.25;100.00;101399.81;2097578;28;20039;-64
2022/01/06 01:43:36;;;;;;;7.37;2.37;;;;;;;0.23;100.00;101398.97;2097702;28;20103;-64
2022/01/06 01:44:36;;;;;;;16.63;2.83;;;;;;;0.22;100.00;101399.81;2106636;28;20077;-64
2022/01/06 01:45:45;;;;;;;16.90;2.53;;;;;;;0.17;100.00;101401.44;2106635;28;20028;-64
2022/01/06 01:46:59;;;;;;;9.48;2.40;;;;;;;0.18;100.00;101405.75;2106569;28;20036;-65
2022/01/06 01:48:04;;;;;;;12.00;3.00;;;;;;;0.23;100.00;101405.78;2106641;28;20028;-64
2022/01/06 01:49:51;;;;;;;15.55;2.75;;;;;;;0.22;100.00;101415.22;2097504;28;20098;-65
2022/01/06 01:50:28;;;;;;;11.77;2.50;;;;;;;0.20;100.00;101416.91;2092775;28;20064;-63
2022/01/06 01:51:28;;;;;;;10.83;1.80;;;;;;;0.22;100.00;101417.78;2106643;28;20016;-63
2022/01/06 01:52:29;;;;;;;20.73;5.13;;;;;;;0.23;100.00;101418.63;2106748;28;20456;-63
2022/01/06 01:53:29;;;;;;;16.90;2.73;;;;;;;0.22;100.00;101419.47;2106570;28;20026;-64
2022/01/06 01:54:30;;;;;;;14.10;3.22;;;;;;;0.22;100.00;101424.63;2106569;28;20028;-65
2022/01/06 01:55:32;;;;;;;10.70;2.50;;;;;;;0.19;100.00;101429.72;2106613;28;20016;-64
2022/01/06 01:56:33;;;;;;;11.85;2.60;;;;;;;0.18;100.00;101428.88;2097438;28;20111;-64
2022/01/06 01:57:34;;;;;;;18.15;3.08;;;;;;;0.21;100.00;101434.00;2097621;28;20024;-64
2022/01/06 01:58:36;;;;;;;8.63;2.13;;;;;;;0.20;100.00;101436.59;2106585;28;20482;-65
2022/01/06 01:59:36;;;;;;;11.40;2.40;;;;;;;0.15;100.00;101433.97;2106497;28;20433;-64
2022/01/06 02:00:37;;;;;;;10.90;2.90;;;;;;;0.16;100.00;101430.53;2106451;28;20031;-64
2022/01/06 02:01:38;;;;;;;10.10;1.98;;;;;;;0.17;100.00;101432.25;2097380;28;20064;-64
2022/01/06 02:02:39;;;;;;;11.40;2.45;;;;;;;0.20;100.00;101437.44;2097501;28;20443;-65
2022/01/06 02:03:39;;;;;;;10.63;2.53;;;;;;;0.23;100.00;101437.47;2106524;28;20469;-65
2022/01/06 02:04:40;;;;;;;15.30;2.80;;;;;;;0.21;100.00;101439.16;2106510;28;20016;-64
2022/01/06 02:05:40;;;;;;;9.73;3.08;;;;;;;0.17;100.00;101434.81;2106491;28;20070;-66
2022/01/06 02:06:41;;;;;;;11.40;2.37;;;;;;;0.15;100.00;101439.09;2106534;28;20095;-65
2022/01/06 02:07:41;;;;;;;10.37;2.60;;;;;;;0.16;100.00;101440.81;2106485;28;20047;-65
2022/01/06 02:08:41;;;;;;;12.57;2.53;;;;;;;0.14;100.00;101442.53;2106464;28;20091;-64
2022/01/06 02:09:42;;;;;;;14.97;2.87;;;;;;;0.18;100.00;101439.13;2097431;28;20028;-63
2022/01/06 02:10:42;;;;;;;13.57;4.33;;;;;;;0.19;100.00;101448.56;2097550;28;20036;-64
2022/01/06 02:11:42;;;;;;;11.47;2.53;;;;;;;0.23;100.00;101442.59;2106375;28;20122;-65
2022/01/06 02:12:44;;;;;;;7.17;2.47;;;;;;;0.22;100.00;101440.88;2106487;28;20024;-64
2022/01/06 02:13:49;;;;;;;12.63;3.00;;;;;;;0.19;100.00;101448.56;2106547;28;20024;-65
2022/01/06 02:14:49;;;;;;;14.98;3.00;;;;;;;0.17;100.00;101442.53;2106336;28;20031;-64
2022/01/06 02:15:49;;;;;;;15.47;2.33;;;;;;;0.12;100.00;101442.50;2106408;28;20473;-63
2022/01/06 02:16:50;;;;;;;9.07;2.10;;;;;;;0.13;100.00;101451.03;2106495;28;20028;-64
2022/01/06 02:17:51;;;;;;;18.50;2.57;;;;;;;0.13;100.00;101451.03;2106444;28;20028;-64
2022/01/06 02:18:52;;;;;;;15.82;2.83;;;;;;;0.11;100.00;101452.75;2106444;28;20091;-64
2022/01/06 02:19:57;;;;;;;10.52;2.10;;;;;;;0.10;100.00;101448.47;2106504;28;20028;-64
2022/01/06 02:20:58;;;;;;;15.32;2.88;;;;;;;0.04;100.00;101451.81;2106443;28;20043;-65
2022/01/06 02:21:58;;;;;;;14.07;2.70;;;;;;;-0.01;100.00;101451.75;2107118;28;20031;-65
2022/01/06 02:22:58;;;;;;;14.73;2.20;;;;;;;-0.03;100.00;101440.59;2108077;28;20028;-64
2022/01/06 02:23:59;;;;;;;7.17;2.20;;;;;;;-0.04;100.00;101449.16;2108197;28;20016;-65
2022/01/06 02:25:21;;;;;;;12.47;2.70;;;;;;;-0.04;100.00;101449.16;2108126;28;20050;-64
2022/01/06 02:26:22;;;;;;;6.57;2.42;;;;;;;-0.03;100.00;101448.31;2107963;28;20031;-65
2022/01/06 02:27:22;;;;;;;10.77;2.08;;;;;;;-0.07;100.00;101448.28;2099048;28;20430;-64
2022/01/06 02:28:22;;;;;;;12.77;2.03;;;;;;;-0.09;100.00;101444.81;2099003;28;20080;-64
2022/01/06 02:29:23;;;;;;;14.37;2.80;;;;;;;-0.11;100.00;101447.34;2098938;28;20425;-64
2022/01/06 02:30:25;;;;;;;10.87;1.93;;;;;;;-0.06;100.00;101450.00;2099177;28;20028;-64
2022/01/06 02:31:25;;;;;;;10.93;2.00;;;;;;;-0.05;100.00;101444.88;2108096;28;20031;-64
2022/01/06 02:32:26;;;;;;;10.83;2.80;;;;;;;-0.05;100.00;101447.44;2108115;28;20039;-64
2022/01/06 02:33:27;;;;;;;12.50;2.13;;;;;;;-0.03;100.00;101448.31;2108033;28;20342;-64
2022/01/06 02:34:27;;;;;;;10.98;2.42;;;;;;;0.02;100.00;101450.94;2108262;28;20048;-64
2022/01/06 02:35:29;;;;;;;12.10;2.43;;;;;;;-0.01;100.00;101449.19;2107415;28;20550;-64
2022/01/06 02:36:29;;;;;;;14.05;2.22;;;;;;;0.02;100.00;101448.38;2099020;28;20416;-63
2022/01/06 02:37:29;;;;;;;12.13;1.87;;;;;;;-0.01;100.00;101449.19;2099252;28;20017;-64
2022/01/06 02:38:30;;;;;;;14.93;3.43;;;;;;;-0.04;100.00;101449.16;2107924;28;20044;-64
2022/01/06 02:39:30;;;;;;;14.52;1.98;;;;;;;-0.01;100.00;101449.19;2099006;28;20485;-66
2022/01/06 02:40:30;;;;;;;12.23;2.80;;;;;;;-0.03;100.00;101445.75;2099081;28;20493;-65
2022/01/06 02:41:32;;;;;;;10.20;2.10;;;;;;;-0.01;100.00;101438.94;2108051;28;20028;-64
2022/01/06 02:42:32;;;;;;;11.35;2.55;;;;;;;0.02;100.00;101448.38;2107945;28;20038;-64
2022/01/06 02:43:34;;;;;;;6.47;2.40;;;;;;;0.01;100.00;101445.78;2107946;28;20047;-65
2022/01/06 02:44:37;;;;;;;13.65;2.22;;;;;;;0.08;100.00;101442.44;2107970;28;20027;-64
2022/01/06 02:45:38;;;;;;;11.02;2.58;;;;;;;0.06;100.00;101442.41;2107933;28;20036;-64
2022/01/06 02:46:40;;;;;;;9.13;1.93;;;;;;;0.07;100.00;101440.72;2098881;28;20024;-65
2022/01/06 02:47:41;;;;;;;19.70;2.60;;;;;;;0.09;100.00;101439.03;2090737;28;20024;-65
2022/01/06 02:48:41;;;;;;;11.80;2.33;;;;;;;0.08;100.00;101440.75;2099091;28;20077;-65
2022/01/06 02:49:42;;;;;;;8.83;1.93;;;;;;;0.09;100.00;101441.59;2107892;28;20587;-64
2022/01/06 02:50:45;;;;;;;16.90;3.37;;;;;;;0.08;100.00;101443.31;2098793;28;20024;-65
2022/01/06 02:51:45;;;;;;;11.23;2.88;;;;;;;0.07;100.00;101445.84;2099399;28;20020;-65
2022/01/06 02:52:46;;;;;;;11.50;1.95;;;;;;;0.06;100.00;101444.13;2108014;28;20020;-64
2022/01/06 02:53:51;;;;;;;12.10;2.50;;;;;;;0.10;100.00;101446.75;2107970;28;20516;-65
2022/01/06 02:54:51;;;;;;;11.35;2.35;;;;;;;0.10;100.00;101440.75;2098853;28;20074;-64
2022/01/06 02:55:53;;;;;;;10.37;2.27;;;;;;;0.05;100.00;101448.41;2099002;28;20113;-64
2022/01/06 02:56:53;;;;;;;8.15;2.00;;;;;;;0.04;100.00;101443.25;2107957;28;20043;-65
2022/01/06 02:57:54;;;;;;;13.45;2.50;;;;;;;0.05;100.00;101444.97;2107930;28;20024;-64
2022/01/06 02:58:54;;;;;;;11.33;2.33;;;;;;;0.15;100.00;101448.50;2098892;28;20398;-65
2022/01/06 02:59:54;;;;;;;13.00;5.87;;;;;;;0.15;100.00;101446.81;2098961;28;20020;-64
2022/01/06 03:00:54;;;;;;;8.50;1.87;;;;;;;0.18;100.00;101443.41;2098802;28;20031;-65
2022/01/06 03:01:55;;;;;;;12.80;2.57;;;;;;;0.18;100.00;101448.53;2098881;28;20392;-64
2022/01/06 03:02:55;;;;;;;8.90;1.93;;;;;;;0.17;100.00;101446.81;2107738;28;20028;-64
2022/01/06 03:03:55;;;;;;;13.60;2.67;;;;;;;0.12;100.00;101451.91;2107819;28;20056;-65
2022/01/06 03:04:56;;;;;;;16.37;2.20;;;;;;;0.10;100.00;101449.31;2107849;28;20016;-65
2022/01/06 03:05:56;;;;;;;13.33;2.30;;;;;;;0.08;100.00;101453.59;2107823;28;20043;-64
2022/01/06 03:06:56;;;;;;;13.03;2.53;;;;;;;0.04;100.00;101450.97;2107903;28;20050;-64
2022/01/06 03:07:56;;;;;;;13.67;2.00;;;;;;;0.11;100.00;101447.63;2098782;28;20019;-64
2022/01/06 03:08:57;;;;;;;13.53;2.63;;;;;;;0.11;100.00;101452.75;2098776;28;20487;-65
2022/01/06 03:09:59;;;;;;;10.07;1.90;;;;;;;0.10;100.00;101456.16;2107747;28;20205;-64
2022/01/06 03:10:59;;;;;;;11.68;2.50;;;;;;;0.07;100.00;101451.00;2107765;28;20115;-64
2022/01/06 03:12:00;;;;;;;14.13;3.13;;;;;;;0.06;100.00;101454.38;2107835;28;20050;-65
2022/01/06 03:13:00;;;;;;;15.10;3.20;;;;;;;0.11;100.00;101453.59;2107771;28;20055;-64
2022/01/06 03:14:01;;;;;;;17.40;2.23;;;;;;;0.16;100.00;101458.78;2098730;28;20462;-65
2022/01/06 03:15:02;;;;;;;;;;;;;;;0.17;100.00;101452.78;2099309;28;20104;-63
2022/01/06 03:16:03;;;;;;;14.93;2.10;;;;;;;0.19;100.00;101458.81;2107889;28;20021;-65
2022/01/06 03:17:04;;;;;;;9.30;2.22;;;;;;;0.13;100.00;101456.19;2107777;28;20060;-64
2022/01/06 03:18:04;;;;;;;8.82;2.10;;;;;;;0.12;100.00;101463.03;2107669;28;20477;-64
2022/01/06 03:19:05;;;;;;;12.13;2.60;;;;;;;0.18;100.00;101459.69;2107708;28;20032;-64
2022/01/06 03:20:08;;;;;;;21.63;2.77;;;;;;;0.17;100.00;101467.34;2107717;28;20047;-64
2022/01/06 03:21:08;;;;;;;11.32;2.05;;;;;;;0.11;100.00;101465.59;2107663;28;20032;-64
2022/01/06 03:22:09;;;;;;;8.90;2.00;;;;;;;0.08;100.00;101463.84;2098605;28;20033;-64
2022/01/06 03:23:09;;;;;;;7.18;2.30;;;;;;;0.15;100.00;101464.78;2098722;28;20074;-64
2022/01/06 03:24:09;;;;;;;10.33;2.73;;;;;;;0.18;100.00;101463.94;2107633;28;20444;-65
2022/01/06 03:25:11;;;;;;;12.47;2.23;;;;;;;0.25;100.00;101471.72;2107674;28;20032;-65
2022/01/06 03:26:12;;;;;;;11.88;1.95;;;;;;;0.29;100.00;101471.75;2098618;28;20106;-65
2022/01/06 03:27:12;;;;;;;7.77;2.00;;;;;;;0.29;100.00;101466.63;2098841;28;20029;-65
2022/01/06 03:28:12;;;;;;;15.40;2.27;;;;;;;0.23;100.00;101465.72;2107713;28;20364;-65
2022/01/06 03:29:13;;;;;;;7.03;2.03;;;;;;;0.16;100.00;101466.47;2107688;28;20392;-65
2022/01/06 03:30:18;;;;;;;7.88;1.45;;;;;;;0.12;100.00;101464.72;2107647;28;20062;-65
2022/01/06 03:31:18;;;;;;;15.60;3.72;;;;;;;0.17;100.00;101468.19;2107647;28;20032;-65
2022/01/06 03:32:19;;;;;;;13.60;1.83;;;;;;;0.20;100.00;101477.66;2107626;28;20023;-65
2022/01/06 03:33:20;;;;;;;13.25;2.38;;;;;;;0.24;100.00;101477.69;2106958;28;20372;-65
2022/01/06 03:34:20;;;;;;;13.90;2.10;;;;;;;0.26;100.00;101477.72;2107219;28;20093;-65
2022/01/06 03:35:22;;;;;;;12.27;2.57;;;;;;;0.27;100.00;101478.59;2107664;28;20073;-65
2022/01/06 03:36:22;;;;;;;12.15;1.95;;;;;;;0.28;100.00;101480.31;2098575;28;20036;-65
2022/01/06 03:37:23;;;;;;;12.20;2.13;;;;;;;0.30;100.00;101479.47;2098705;28;20443;-65
2022/01/06 03:38:23;;;;;;;14.40;2.70;;;;;;;0.38;100.00;101477.84;2107725;28;20141;-65
2022/01/06 03:39:24;;;;;;;8.80;1.90;;;;;;;0.43;100.00;101488.16;2107498;28;20477;-65
2022/01/06 03:40:24;;;;;;;11.88;2.50;;;;;;;0.47;100.00;101483.91;2107615;28;20054;-64
2022/01/06 03:41:24;;;;;;;19.40;2.60;;;;;;;0.46;100.00;101484.75;2098626;28;20034;-65
2022/01/06 03:42:24;;;;;;;10.13;1.77;;;;;;;0.47;100.00;101482.22;2098670;28;20059;-64
2022/01/06 03:43:25;;;;;;;14.73;2.63;;;;;;;0.48;100.00;101483.94;2098469;28;20123;-64
2022/01/06 03:44:25;;;;;;;10.30;2.23;;;;;;;0.46;100.00;101485.63;2098555;28;20024;-65
2022/01/06 03:45:25;;;;;;;11.97;2.03;;;;;;;0.41;100.00;101486.44;2098538;28;20032;-64
2022/01/06 03:46:26;;;;;;;13.80;2.27;;;;;;;0.46;100.00;101479.63;2106835;28;20048;-64
2022/01/06 03:47:26;;;;;;;13.35;2.72;;;;;;;0.49;100.00;101485.69;2098530;28;20028;-65
2022/01/06 03:48:27;;;;;;;21.50;2.97;;;;;;;0.45;100.00;101489.03;2107498;28;20049;-64
2022/01/06 03:49:27;;;;;;;16.10;2.17;;;;;;;0.42;100.00;101494.16;2107410;28;20461;-64
2022/01/06 03:50:27;;;;;;;13.43;2.00;;;;;;;0.38;100.00;101487.28;2107534;28;20039;-64
2022/01/06 03:51:28;;;;;;;10.48;2.78;;;;;;;0.34;100.00;101485.50;2107456;28;20388;-64
2022/01/06 03:52:28;;;;;;;10.47;2.20;;;;;;;0.37;100.00;101485.53;2107403;28;20031;-65
2022/01/06 03:53:28;;;;;;;8.37;1.80;;;;;;;0.39;100.00;101488.97;2107422;28;20031;-65
2022/01/06 03:54:29;;;;;;;13.33;2.00;;;;;;;0.38;100.00;101495.81;2098472;28;20062;-64
2022/01/06 03:55:29;;;;;;;16.80;2.70;;;;;;;0.40;100.00;101490.69;2090115;28;20040;-65
2022/01/06 03:56:29;;;;;;;11.17;1.90;;;;;;;0.38;100.00;101487.28;2098479;28;20286;-65
2022/01/06 03:57:29;;;;;;;15.07;3.03;;;;;;;0.43;100.00;101489.88;2107348;28;20055;-65
2022/01/06 03:58:30;;;;;;;14.10;2.10;;;;;;;0.45;100.00;101486.47;2107407;28;20493;-64
2022/01/06 03:59:30;;;;;;;12.37;1.97;;;;;;;0.44;100.00;101487.31;2107391;28;20062;-66
2022/01/06 04:00:30;;;;;;;11.57;3.10;;;;;;;0.41;100.00;101479.56;2107419;28;20052;-65
2022/01/06 04:01:32;;;;;;;9.93;2.73;;;;;;;0.46;100.00;101490.78;2107377;28;20447;-64
2022/01/06 04:02:32;;;;;;;18.77;2.80;;;;;;;0.50;100.00;101484.81;2107347;28;20057;-65
2022/01/06 04:03:33;;;;;;;6.33;1.80;;;;;;;0.57;100.00;101490.00;2107280;28;20028;-64
2022/01/06 04:04:33;;;;;;;15.35;2.17;;;;;;;0.63;100.00;101490.06;2098304;28;20336;-65
2022/01/06 04:05:34;;;;;;;13.33;2.13;;;;;;;0.64;100.00;101491.78;2098402;28;20036;-65
2022/01/06 04:06:34;;;;;;;10.10;2.00;;;;;;;0.62;100.00;101488.34;2107395;28;20030;-65
2022/01/06 04:07:35;;;;;;;15.43;2.57;;;;;;;0.58;100.00;101484.03;2098276;28;20101;-65
2022/01/06 04:08:36;;;;;;;10.30;2.03;;;;;;;0.61;100.00;101489.19;2098314;28;20501;-65
2022/01/06 04:09:36;;;;;;;13.02;2.75;;;;;;;0.60;100.00;101492.59;2098228;28;20036;-64
2022/01/06 04:10:37;;;;;;;9.13;2.47;;;;;;;0.56;100.00;101483.16;2098343;28;20494;-65
2022/01/06 04:11:37;;;;;;;9.93;1.77;;;;;;;0.57;100.00;101484.88;2106643;28;20094;-64
2022/01/06 04:12:38;;;;;;;19.90;2.63;;;;;;;0.66;100.00;101487.53;2098371;28;20135;-65
2022/01/06 04:13:39;;;;;;;20.92;2.92;;;;;;;0.67;100.00;101484.13;2098426;28;20418;-64
2022/01/06 04:14:39;;;;;;;16.57;3.43;;;;;;;0.68;100.00;101480.69;2107350;28;20035;-65
2022/01/06 04:15:39;;;;;;;12.27;2.20;;;;;;;0.62;100.00;101480.66;2107280;28;20051;-65
2022/01/06 04:16:40;;;;;;;17.17;2.37;;;;;;;0.57;100.00;101483.16;2098231;28;20459;-65
2022/01/06 04:17:42;;;;;;;12.10;1.65;;;;;;;0.61;100.00;101491.75;2098409;28;20033;-65
2022/01/06 04:18:42;;;;;;;12.80;2.55;;;;;;;0.62;100.00;101483.22;2107267;28;20015;-65
2022/01/06 04:19:43;;;;;;;11.18;3.25;;;;;;;0.57;100.00;101482.28;2107201;28;20427;-64
2022/01/06 04:20:43;;;;;;;6.57;1.83;;;;;;;0.50;100.00;101492.53;2107315;28;20504;-66
2022/01/06 04:21:43;;;;;;;7.93;1.83;;;;;;;0.47;100.00;101492.50;2107196;28;20031;-65
2022/01/06 04:22:44;;;;;;;12.33;1.53;;;;;;;0.46;100.00;101490.78;2107263;28;20031;-64
2022/01/06 04:23:47;;;;;;;13.13;1.65;;;;;;;0.47;100.00;101489.91;2107271;28;20077;-65
2022/01/06 04:24:48;;;;;;;11.07;3.10;;;;;;;0.48;100.00;101493.38;2107217;28;20035;-64
2022/01/06 04:25:48;;;;;;;8.27;1.35;;;;;;;0.44;100.00;101496.75;2107253;28;20024;-65
2022/01/06 04:26:48;;;;;;;10.13;2.50;;;;;;;0.45;100.00;101496.72;2107263;28;20478;-65
2022/01/06 04:27:48;;;;;;;7.87;1.60;;;;;;;0.45;100.00;101501.03;2107162;28;20028;-65
2022/01/06 04:28:49;;;;;;;14.53;3.67;;;;;;;0.49;100.00;101503.66;2097941;28;20047;-65
2022/01/06 04:29:49;;;;;;;10.13;1.87;;;;;;;0.48;100.00;101504.47;2098129;28;20532;-65
2022/01/06 04:30:49;;;;;;;7.03;1.37;;;;;;;0.48;100.00;101511.34;2106600;28;20103;-66
2022/01/06 04:31:49;;;;;;;13.90;2.10;;;;;;;0.51;100.00;101514.78;2107161;28;20027;-64
2022/01/06 04:32:50;;;;;;;13.40;2.17;;;;;;;0.58;100.00;101513.13;2107198;28;20105;-65
2022/01/06 04:33:50;;;;;;;9.03;2.03;;;;;;;0.59;100.00;101506.31;2107123;28;20016;-65
2022/01/06 04:34:50;;;;;;;11.77;2.17;;;;;;;0.60;100.00;101508.88;2107175;28;20396;-66
2022/01/06 04:35:50;;;;;;;14.63;2.40;;;;;;;0.59;100.00;101516.56;2107150;28;20089;-66
2022/01/06 04:36:54;;;;;;;10.30;2.40;;;;;;;0.55;100.00;101512.25;2107111;28;20039;-65
2022/01/06 04:37:55;;;;;;;9.55;1.73;;;;;;;0.56;100.00;101514.84;2098094;28;20020;-65
2022/01/06 04:38:55;;;;;;;10.30;1.90;;;;;;;0.51;100.00;101504.50;2098301;28;20385;-65
2022/01/06 04:39:55;;;;;;;10.90;2.63;;;;;;;0.46;100.00;101516.47;2106975;28;20028;-66
2022/01/06 04:40:56;;;;;;;14.93;2.83;;;;;;;0.40;100.00;101511.25;2107040;28;20032;-64
2022/01/06 04:41:57;;;;;;;14.02;1.92;;;;;;;0.34;100.00;101511.19;2107103;28;20464;-65
2022/01/06 04:42:57;;;;;;;13.47;2.47;;;;;;;0.25;100.00;101512.78;2107059;28;20043;-65
2022/01/06 04:43:57;;;;;;;16.37;1.93;;;;;;;0.20;100.00;101514.44;2107052;28;20505;-64
2022/01/06 04:44:57;;;;;;;12.47;1.63;;;;;;;0.13;100.00;101507.50;2097839;28;20024;-65
2022/01/06 04:45:59;;;;;;;15.00;2.40;;;;;;;0.10;100.00;101512.63;2089773;28;20056;-65
2022/01/06 04:47:00;;;;;;;12.82;2.13;;;;;;;0.05;100.00;101514.25;2098123;28;20024;-65
2022/01/06 04:48:01;;;;;;;13.52;2.38;;;;;;;0.02;100.00;101517.66;2106992;28;20538;-65
2022/01/06 04:49:01;;;;;;;11.50;2.27;;;;;;;-0.01;100.00;101520.19;2097875;28;20024;-65
2022/01/06 04:50:01;;;;;;;14.10;2.57;;;;;;;-0.06;100.00;101517.59;2098058;28;20035;-64
2022/01/06 04:51:02;;;;;;;12.83;1.93;;;;;;;-0.10;100.00;101515.78;2098043;28;20040;-65
2022/01/06 04:52:02;;;;;;;12.27;2.30;;;;;;;-0.10;100.00;101526.06;2106885;28;20782;-65